sensor_id;sensor_type;location;lat;lon;timestamp;P1;durP1;ratioP1;P2;durP2;ratioP2
6878;SDS011;3478;51.462;7.338;2023-08-07T00:02:37;2.37;;;1.97;;
6878;SDS011;3478;51.462;7.338;2023-08-07T00:07:40;2.57;;;2.37;;
6878;SDS011;3478;51.462;7.338;2023-08-07T00:12:42;4.00;;;2.57;;
6878;SDS011;3478;51.462;7.338;2023-08-07T00:17:44;2.03;;;1.93;;
6878;SDS011;3478;51.462;7.338;2023-08-07T00:22:47;1.77;;;1.67;;
6878;SDS011;3478;51.462;7.338;2023-08-07T00:27:49;1.90;;;1.80;;
6878;SDS011;3478;51.462;7.338;2023-08-07T00:32:51;2.30;;;2.20;;
6878;SDS011;3478;51.462;7.338;2023-08-07T00:37:54;2.70;;;1.90;;
6878;SDS011;3478;51.462;7.338;2023-08-07T00:42:56;2.47;;;2.37;;
6878;SDS011;3478;51.462;7.338;2023-08-07T00:47:58;2.60;;;2.40;;
6878;SDS011;3478;51.462;7.338;2023-08-07T00:53:01;2.77;;;2.47;;
6878;SDS011;3478;51.462;7.338;2023-08-07T00:58:03;2.87;;;2.67;;
6878;SDS011;3478;51.462;7.338;2023-08-07T01:03:05;2.93;;;2.73;;
6878;SDS011;3478;51.462;7.338;2023-08-07T01:08:09;4.10;;;2.53;;
6878;SDS011;3478;51.462;7.338;2023-08-07T01:13:17;11.43;;;3.50;;
6878;SDS011;3478;51.462;7.338;2023-08-07T01:18:24;2.90;;;2.40;;
6878;SDS011;3478;51.462;7.338;2023-08-07T01:23:28;3.27;;;3.07;;
6878;SDS011;3478;51.462;7.338;2023-08-07T01:28:31;3.83;;;3.40;;
6878;SDS011;3478;51.462;7.338;2023-08-07T01:33:39;3.90;;;3.60;;
6878;SDS011;3478;51.462;7.338;2023-08-07T01:38:50;5.43;;;4.40;;
6878;SDS011;3478;51.462;7.338;2023-08-07T01:43:55;4.90;;;4.20;;
6878;SDS011;3478;51.462;7.338;2023-08-07T01:48:58;4.67;;;4.37;;
6878;SDS011;3478;51.462;7.338;2023-08-07T01:54:01;8.30;;;5.83;;
6878;SDS011;3478;51.462;7.338;2023-08-07T01:59:03;5.80;;;4.57;;
6878;SDS011;3478;51.462;7.338;2023-08-07T02:04:05;8.80;;;6.53;;
6878;SDS011;3478;51.462;7.338;2023-08-07T02:09:08;5.80;;;5.30;;
6878;SDS011;3478;51.462;7.338;2023-08-07T02:14:10;10.90;;;6.57;;
6878;SDS011;3478;51.462;7.338;2023-08-07T02:19:12;5.17;;;4.67;;
6878;SDS011;3478;51.462;7.338;2023-08-07T02:24:15;5.00;;;4.60;;
6878;SDS011;3478;51.462;7.338;2023-08-07T02:29:18;3.70;;;3.50;;
6878;SDS011;3478;51.462;7.338;2023-08-07T02:34:20;10.10;;;3.43;;
6878;SDS011;3478;51.462;7.338;2023-08-07T02:39:24;6.37;;;3.80;;
6878;SDS011;3478;51.462;7.338;2023-08-07T02:44:27;3.90;;;3.47;;
6878;SDS011;3478;51.462;7.338;2023-08-07T02:49:29;3.93;;;3.63;;
6878;SDS011;3478;51.462;7.338;2023-08-07T02:54:32;3.40;;;3.20;;
6878;SDS011;3478;51.462;7.338;2023-08-07T02:59:34;2.20;;;2.00;;
6878;SDS011;3478;51.462;7.338;2023-08-07T03:04:35;4.70;;;1.50;;
6878;SDS011;3478;51.462;7.338;2023-08-07T03:09:39;2.90;;;1.80;;
6878;SDS011;3478;51.462;7.338;2023-08-07T03:14:40;1.47;;;1.37;;
6878;SDS011;3478;51.462;7.338;2023-08-07T03:19:42;2.60;;;1.47;;
6878;SDS011;3478;51.462;7.338;2023-08-07T03:24:47;1.77;;;1.43;;
6878;SDS011;3478;51.462;7.338;2023-08-07T03:29:49;2.53;;;1.13;;
6878;SDS011;3478;51.462;7.338;2023-08-07T03:34:51;2.57;;;0.90;;
6878;SDS011;3478;51.462;7.338;2023-08-07T03:39:54;1.40;;;1.30;;
6878;SDS011;3478;51.462;7.338;2023-08-07T03:44:56;1.93;;;0.90;;
6878;SDS011;3478;51.462;7.338;2023-08-07T03:49:58;1.83;;;1.00;;
6878;SDS011;3478;51.462;7.338;2023-08-07T03:55:01;3.30;;;2.00;;
6878;SDS011;3478;51.462;7.338;2023-08-07T04:00:03;2.97;;;1.83;;
6878;SDS011;3478;51.462;7.338;2023-08-07T04:05:06;7.27;;;4.23;;
6878;SDS011;3478;51.462;7.338;2023-08-07T04:10:09;3.73;;;3.37;;
6878;SDS011;3478;51.462;7.338;2023-08-07T04:15:11;5.80;;;4.97;;
6878;SDS011;3478;51.462;7.338;2023-08-07T04:20:13;6.87;;;5.13;;
6878;SDS011;3478;51.462;7.338;2023-08-07T04:25:16;6.43;;;5.63;;
6878;SDS011;3478;51.462;7.338;2023-08-07T04:30:18;8.43;;;5.90;;
6878;SDS011;3478;51.462;7.338;2023-08-07T04:35:20;7.90;;;7.10;;
6878;SDS011;3478;51.462;7.338;2023-08-07T04:40:23;12.83;;;8.57;;
6878;SDS011;3478;51.462;7.338;2023-08-07T04:45:25;13.63;;;10.27;;
6878;SDS011;3478;51.462;7.338;2023-08-07T04:50:27;15.27;;;10.03;;
6878;SDS011;3478;51.462;7.338;2023-08-07T04:55:30;10.97;;;8.47;;
6878;SDS011;3478;51.462;7.338;2023-08-07T05:00:32;11.20;;;8.13;;
6878;SDS011;3478;51.462;7.338;2023-08-07T05:05:34;12.27;;;8.17;;
6878;SDS011;3478;51.462;7.338;2023-08-07T05:10:37;14.13;;;8.43;;
6878;SDS011;3478;51.462;7.338;2023-08-07T05:15:39;14.27;;;8.43;;
6878;SDS011;3478;51.462;7.338;2023-08-07T05:20:40;9.20;;;7.77;;
6878;SDS011;3478;51.462;7.338;2023-08-07T05:25:45;10.53;;;9.10;;
6878;SDS011;3478;51.462;7.338;2023-08-07T05:30:47;10.33;;;8.13;;
6878;SDS011;3478;51.462;7.338;2023-08-07T05:35:49;8.93;;;6.93;;
6878;SDS011;3478;51.462;7.338;2023-08-07T05:40:54;9.90;;;7.93;;
6878;SDS011;3478;51.462;7.338;2023-08-07T05:45:56;9.83;;;6.47;;
6878;SDS011;3478;51.462;7.338;2023-08-07T05:50:57;6.17;;;4.47;;
6878;SDS011;3478;51.462;7.338;2023-08-07T05:56:01;6.60;;;4.03;;
6878;SDS011;3478;51.462;7.338;2023-08-07T06:01:03;10.73;;;4.23;;
6878;SDS011;3478;51.462;7.338;2023-08-07T06:06:05;6.80;;;4.37;;
6878;SDS011;3478;51.462;7.338;2023-08-07T06:11:08;4.63;;;3.77;;
6878;SDS011;3478;51.462;7.338;2023-08-07T06:16:10;5.87;;;2.93;;
6878;SDS011;3478;51.462;7.338;2023-08-07T06:21:12;3.57;;;3.23;;
6878;SDS011;3478;51.462;7.338;2023-08-07T06:26:15;9.03;;;7.10;;
6878;SDS011;3478;51.462;7.338;2023-08-07T06:31:17;9.47;;;7.70;;
6878;SDS011;3478;51.462;7.338;2023-08-07T06:36:19;9.30;;;7.03;;
6878;SDS011;3478;51.462;7.338;2023-08-07T06:41:22;8.30;;;7.10;;
6878;SDS011;3478;51.462;7.338;2023-08-07T06:46:24;11.27;;;8.63;;
6878;SDS011;3478;51.462;7.338;2023-08-07T06:51:27;10.00;;;8.87;;
6878;SDS011;3478;51.462;7.338;2023-08-07T06:56:31;10.20;;;8.33;;
6878;SDS011;3478;51.462;7.338;2023-08-07T07:01:32;8.87;;;8.07;;
6878;SDS011;3478;51.462;7.338;2023-08-07T07:06:34;7.40;;;6.70;;
6878;SDS011;3478;51.462;7.338;2023-08-07T07:11:39;10.43;;;7.20;;
6878;SDS011;3478;51.462;7.338;2023-08-07T07:16:41;9.90;;;6.27;;
6878;SDS011;3478;51.462;7.338;2023-08-07T07:21:43;6.87;;;6.37;;
6878;SDS011;3478;51.462;7.338;2023-08-07T07:26:46;8.13;;;5.17;;
6878;SDS011;3478;51.462;7.338;2023-08-07T07:31:50;7.00;;;6.40;;
6878;SDS011;3478;51.462;7.338;2023-08-07T07:36:53;5.80;;;5.30;;
6878;SDS011;3478;51.462;7.338;2023-08-07T07:41:57;5.03;;;4.37;;
6878;SDS011;3478;51.462;7.338;2023-08-07T07:46:58;5.70;;;5.20;;
6878;SDS011;3478;51.462;7.338;2023-08-07T07:52:00;6.40;;;5.23;;
6878;SDS011;3478;51.462;7.338;2023-08-07T07:57:04;5.97;;;5.47;;
6878;SDS011;3478;51.462;7.338;2023-08-07T08:02:06;7.27;;;5.00;;
6878;SDS011;3478;51.462;7.338;2023-08-07T08:07:08;4.50;;;4.30;;
6878;SDS011;3478;51.462;7.338;2023-08-07T08:12:12;5.13;;;4.67;;
6878;SDS011;3478;51.462;7.338;2023-08-07T08:17:13;6.70;;;5.57;;
6878;SDS011;3478;51.462;7.338;2023-08-07T08:22:15;4.40;;;3.93;;
6878;SDS011;3478;51.462;7.338;2023-08-07T08:27:19;6.63;;;3.97;;
6878;SDS011;3478;51.462;7.338;2023-08-07T08:32:21;3.47;;;2.40;;
6878;SDS011;3478;51.462;7.338;2023-08-07T08:37:23;8.07;;;1.33;;
6878;SDS011;3478;51.462;7.338;2023-08-07T08:42:27;1.03;;;0.93;;
6878;SDS011;3478;51.462;7.338;2023-08-07T08:47:28;1.33;;;1.23;;
6878;SDS011;3478;51.462;7.338;2023-08-07T08:52:34;2.20;;;0.87;;
6878;SDS011;3478;51.462;7.338;2023-08-07T08:57:39;2.80;;;0.57;;
6878;SDS011;3478;51.462;7.338;2023-08-07T09:02:42;1.10;;;0.90;;
6878;SDS011;3478;51.462;7.338;2023-08-07T09:07:45;2.77;;;1.40;;
6878;SDS011;3478;51.462;7.338;2023-08-07T09:12:52;10.10;;;2.90;;
6878;SDS011;3478;51.462;7.338;2023-08-07T09:17:58;4.00;;;3.17;;
6878;SDS011;3478;51.462;7.338;2023-08-07T09:23:00;4.50;;;3.37;;
6878;SDS011;3478;51.462;7.338;2023-08-07T09:28:04;8.53;;;3.43;;
6878;SDS011;3478;51.462;7.338;2023-08-07T09:33:06;8.40;;;4.27;;
6878;SDS011;3478;51.462;7.338;2023-08-07T09:38:08;7.90;;;3.93;;
6878;SDS011;3478;51.462;7.338;2023-08-07T09:43:11;15.53;;;4.50;;
6878;SDS011;3478;51.462;7.338;2023-08-07T09:48:22;9.77;;;4.20;;
6878;SDS011;3478;51.462;7.338;2023-08-07T09:53:25;5.63;;;3.27;;
6878;SDS011;3478;51.462;7.338;2023-08-07T09:58:29;7.23;;;3.80;;
6878;SDS011;3478;51.462;7.338;2023-08-07T10:03:31;12.83;;;4.40;;
6878;SDS011;3478;51.462;7.338;2023-08-07T10:08:33;7.27;;;3.40;;
6878;SDS011;3478;51.462;7.338;2023-08-07T10:13:37;7.80;;;3.30;;
6878;SDS011;3478;51.462;7.338;2023-08-07T10:18:39;2.80;;;1.67;;
6878;SDS011;3478;51.462;7.338;2023-08-07T10:23:41;4.73;;;2.43;;
6878;SDS011;3478;51.462;7.338;2023-08-07T10:28:45;6.97;;;2.13;;
6878;SDS011;3478;51.462;7.338;2023-08-07T10:33:48;5.33;;;2.00;;
6878;SDS011;3478;51.462;7.338;2023-08-07T10:38:51;6.57;;;3.10;;
6878;SDS011;3478;51.462;7.338;2023-08-07T10:44:17;6.80;;;3.40;;
6878;SDS011;3478;51.462;7.338;2023-08-07T10:49:33;5.40;;;3.43;;
6878;SDS011;3478;51.462;7.338;2023-08-07T10:54:37;3.40;;;3.00;;
6878;SDS011;3478;51.462;7.338;2023-08-07T10:59:50;6.10;;;2.60;;
6878;SDS011;3478;51.462;7.338;2023-08-07T11:04:52;6.00;;;2.07;;
6878;SDS011;3478;51.462;7.338;2023-08-07T11:09:55;9.13;;;2.60;;
6878;SDS011;3478;51.462;7.338;2023-08-07T11:14:59;12.70;;;2.60;;
6878;SDS011;3478;51.462;7.338;2023-08-07T11:20:01;3.53;;;1.73;;
6878;SDS011;3478;51.462;7.338;2023-08-07T11:25:05;8.10;;;3.23;;
6878;SDS011;3478;51.462;7.338;2023-08-07T11:30:13;3.73;;;2.77;;
6878;SDS011;3478;51.462;7.338;2023-08-07T11:35:15;2.40;;;1.77;;
6878;SDS011;3478;51.462;7.338;2023-08-07T11:40:17;5.13;;;1.77;;
6878;SDS011;3478;51.462;7.338;2023-08-07T11:45:20;3.90;;;1.70;;
6878;SDS011;3478;51.462;7.338;2023-08-07T11:50:22;3.20;;;2.20;;
6878;SDS011;3478;51.462;7.338;2023-08-07T11:55:24;6.30;;;1.50;;
6878;SDS011;3478;51.462;7.338;2023-08-07T12:00:27;6.20;;;1.47;;
6878;SDS011;3478;51.462;7.338;2023-08-07T12:05:37;8.60;;;1.97;;
6878;SDS011;3478;51.462;7.338;2023-08-07T12:10:39;3.10;;;1.90;;
6878;SDS011;3478;51.462;7.338;2023-08-07T12:15:43;2.97;;;1.30;;
6878;SDS011;3478;51.462;7.338;2023-08-07T12:20:45;3.87;;;1.90;;
6878;SDS011;3478;51.462;7.338;2023-08-07T12:25:47;3.30;;;1.23;;
6878;SDS011;3478;51.462;7.338;2023-08-07T12:30:50;3.53;;;1.37;;
6878;SDS011;3478;51.462;7.338;2023-08-07T12:35:53;2.80;;;1.10;;
6878;SDS011;3478;51.462;7.338;2023-08-07T12:40:55;7.50;;;1.00;;
6878;SDS011;3478;51.462;7.338;2023-08-07T12:45:59;1.20;;;0.80;;
6878;SDS011;3478;51.462;7.338;2023-08-07T12:51:01;2.63;;;1.50;;
6878;SDS011;3478;51.462;7.338;2023-08-07T12:56:03;6.20;;;1.20;;
6878;SDS011;3478;51.462;7.338;2023-08-07T13:01:07;5.53;;;1.87;;
6878;SDS011;3478;51.462;7.338;2023-08-07T13:06:09;1.83;;;1.00;;
6878;SDS011;3478;51.462;7.338;2023-08-07T13:11:12;5.70;;;1.13;;
6878;SDS011;3478;51.462;7.338;2023-08-07T13:16:15;6.10;;;1.13;;
6878;SDS011;3478;51.462;7.338;2023-08-07T13:21:16;2.03;;;1.13;;
6878;SDS011;3478;51.462;7.338;2023-08-07T13:26:18;3.60;;;1.23;;
6878;SDS011;3478;51.462;7.338;2023-08-07T13:31:21;3.43;;;0.90;;
6878;SDS011;3478;51.462;7.338;2023-08-07T13:36:23;1.83;;;0.87;;
6878;SDS011;3478;51.462;7.338;2023-08-07T13:41:25;2.20;;;1.20;;
6878;SDS011;3478;51.462;7.338;2023-08-07T13:46:28;4.03;;;1.20;;
6878;SDS011;3478;51.462;7.338;2023-08-07T13:51:30;2.40;;;1.13;;
6878;SDS011;3478;51.462;7.338;2023-08-07T13:56:32;3.40;;;1.07;;
6878;SDS011;3478;51.462;7.338;2023-08-07T14:01:35;3.23;;;1.07;;
6878;SDS011;3478;51.462;7.338;2023-08-07T14:06:37;4.80;;;1.17;;
6878;SDS011;3478;51.462;7.338;2023-08-07T14:11:39;3.33;;;1.00;;
6878;SDS011;3478;51.462;7.338;2023-08-07T14:16:42;2.30;;;0.77;;
6878;SDS011;3478;51.462;7.338;2023-08-07T14:21:44;4.70;;;0.80;;
6878;SDS011;3478;51.462;7.338;2023-08-07T14:26:46;2.30;;;0.80;;
6878;SDS011;3478;51.462;7.338;2023-08-07T14:31:49;2.80;;;0.70;;
6878;SDS011;3478;51.462;7.338;2023-08-07T14:36:51;3.70;;;0.80;;
6878;SDS011;3478;51.462;7.338;2023-08-07T14:41:54;2.40;;;0.70;;
6878;SDS011;3478;51.462;7.338;2023-08-07T14:46:57;1.73;;;0.70;;
6878;SDS011;3478;51.462;7.338;2023-08-07T14:51:59;2.47;;;0.80;;
6878;SDS011;3478;51.462;7.338;2023-08-07T14:57:01;3.20;;;0.70;;
6878;SDS011;3478;51.462;7.338;2023-08-07T15:02:05;2.60;;;1.00;;
6878;SDS011;3478;51.462;7.338;2023-08-07T15:07:07;2.20;;;1.47;;
6878;SDS011;3478;51.462;7.338;2023-08-07T15:12:09;2.73;;;1.60;;
6878;SDS011;3478;51.462;7.338;2023-08-07T15:17:13;2.20;;;1.27;;
6878;SDS011;3478;51.462;7.338;2023-08-07T15:22:14;4.40;;;1.00;;
6878;SDS011;3478;51.462;7.338;2023-08-07T15:27:16;3.43;;;1.10;;
6878;SDS011;3478;51.462;7.338;2023-08-07T15:32:19;3.90;;;0.80;;
6878;SDS011;3478;51.462;7.338;2023-08-07T15:37:22;5.90;;;1.30;;
6878;SDS011;3478;51.462;7.338;2023-08-07T15:42:23;1.83;;;0.80;;
6878;SDS011;3478;51.462;7.338;2023-08-07T15:47:27;4.80;;;0.80;;
6878;SDS011;3478;51.462;7.338;2023-08-07T15:52:29;1.50;;;0.60;;
6878;SDS011;3478;51.462;7.338;2023-08-07T15:57:30;1.40;;;0.70;;
6878;SDS011;3478;51.462;7.338;2023-08-07T16:02:34;1.27;;;0.80;;
6878;SDS011;3478;51.462;7.338;2023-08-07T16:07:35;1.70;;;0.50;;
6878;SDS011;3478;51.462;7.338;2023-08-07T16:12:37;1.30;;;0.80;;
6878;SDS011;3478;51.462;7.338;2023-08-07T16:17:40;1.03;;;0.53;;
6878;SDS011;3478;51.462;7.338;2023-08-07T16:22:42;3.13;;;1.27;;
6878;SDS011;3478;51.462;7.338;2023-08-07T16:27:44;2.93;;;0.60;;
6878;SDS011;3478;51.462;7.338;2023-08-07T16:32:49;2.97;;;0.60;;
6878;SDS011;3478;51.462;7.338;2023-08-07T16:37:51;1.07;;;0.70;;
6878;SDS011;3478;51.462;7.338;2023-08-07T16:42:53;0.80;;;0.50;;
6878;SDS011;3478;51.462;7.338;2023-08-07T16:47:57;3.90;;;0.67;;
6878;SDS011;3478;51.462;7.338;2023-08-07T16:53:00;1.53;;;0.50;;
6878;SDS011;3478;51.462;7.338;2023-08-07T16:58:02;2.03;;;0.80;;
6878;SDS011;3478;51.462;7.338;2023-08-07T17:03:05;3.00;;;0.73;;
6878;SDS011;3478;51.462;7.338;2023-08-07T17:08:07;1.23;;;0.83;;
6878;SDS011;3478;51.462;7.338;2023-08-07T17:13:09;2.83;;;0.87;;
6878;SDS011;3478;51.462;7.338;2023-08-07T17:18:12;2.50;;;1.17;;
6878;SDS011;3478;51.462;7.338;2023-08-07T17:23:14;1.20;;;0.70;;
6878;SDS011;3478;51.462;7.338;2023-08-07T17:28:16;2.70;;;1.10;;
6878;SDS011;3478;51.462;7.338;2023-08-07T17:33:19;1.67;;;1.00;;
6878;SDS011;3478;51.462;7.338;2023-08-07T17:38:21;1.37;;;1.10;;
6878;SDS011;3478;51.462;7.338;2023-08-07T17:43:23;6.87;;;1.27;;
6878;SDS011;3478;51.462;7.338;2023-08-07T17:48:26;3.47;;;1.00;;
6878;SDS011;3478;51.462;7.338;2023-08-07T17:53:28;2.87;;;1.00;;
6878;SDS011;3478;51.462;7.338;2023-08-07T17:58:30;1.17;;;0.90;;
6878;SDS011;3478;51.462;7.338;2023-08-07T18:03:33;1.87;;;1.07;;
6878;SDS011;3478;51.462;7.338;2023-08-07T18:08:35;1.57;;;0.83;;
6878;SDS011;3478;51.462;7.338;2023-08-07T18:13:37;1.67;;;0.93;;
6878;SDS011;3478;51.462;7.338;2023-08-07T18:18:40;0.90;;;0.67;;
6878;SDS011;3478;51.462;7.338;2023-08-07T18:23:43;1.80;;;0.90;;
6878;SDS011;3478;51.462;7.338;2023-08-07T18:28:45;1.50;;;0.97;;
6878;SDS011;3478;51.462;7.338;2023-08-07T18:33:48;1.00;;;0.60;;
6878;SDS011;3478;51.462;7.338;2023-08-07T18:38:50;1.50;;;0.70;;
6878;SDS011;3478;51.462;7.338;2023-08-07T18:43:52;3.53;;;0.90;;
6878;SDS011;3478;51.462;7.338;2023-08-07T18:48:55;3.00;;;0.80;;
6878;SDS011;3478;51.462;7.338;2023-08-07T18:53:57;2.17;;;1.30;;
6878;SDS011;3478;51.462;7.338;2023-08-07T18:58:59;1.33;;;1.23;;
6878;SDS011;3478;51.462;7.338;2023-08-07T19:04:04;1.90;;;0.83;;
6878;SDS011;3478;51.462;7.338;2023-08-07T19:09:06;1.50;;;0.90;;
6878;SDS011;3478;51.462;7.338;2023-08-07T19:14:08;1.73;;;1.10;;
6878;SDS011;3478;51.462;7.338;2023-08-07T19:19:11;1.70;;;0.90;;
6878;SDS011;3478;51.462;7.338;2023-08-07T19:24:14;1.60;;;1.10;;
6878;SDS011;3478;51.462;7.338;2023-08-07T19:29:16;1.17;;;0.77;;
6878;SDS011;3478;51.462;7.338;2023-08-07T19:34:19;1.70;;;1.00;;
6878;SDS011;3478;51.462;7.338;2023-08-07T19:39:22;5.17;;;1.20;;
6878;SDS011;3478;51.462;7.338;2023-08-07T19:44:24;1.50;;;0.80;;
6878;SDS011;3478;51.462;7.338;2023-08-07T19:49:27;2.90;;;0.90;;
6878;SDS011;3478;51.462;7.338;2023-08-07T19:54:29;3.73;;;1.17;;
6878;SDS011;3478;51.462;7.338;2023-08-07T19:59:31;3.40;;;1.03;;
6878;SDS011;3478;51.462;7.338;2023-08-07T20:04:34;1.50;;;1.20;;
6878;SDS011;3478;51.462;7.338;2023-08-07T20:09:36;2.47;;;0.80;;
6878;SDS011;3478;51.462;7.338;2023-08-07T20:14:38;3.77;;;2.00;;
6878;SDS011;3478;51.462;7.338;2023-08-07T20:19:42;2.23;;;1.17;;
6878;SDS011;3478;51.462;7.338;2023-08-07T20:24:46;2.63;;;1.47;;
6878;SDS011;3478;51.462;7.338;2023-08-07T20:29:48;3.73;;;1.43;;
6878;SDS011;3478;51.462;7.338;2023-08-07T20:34:52;5.80;;;1.70;;
6878;SDS011;3478;51.462;7.338;2023-08-07T20:39:54;2.70;;;1.20;;
6878;SDS011;3478;51.462;7.338;2023-08-07T20:44:56;4.70;;;1.70;;
6878;SDS011;3478;51.462;7.338;2023-08-07T20:49:59;2.57;;;1.40;;
6878;SDS011;3478;51.462;7.338;2023-08-07T20:55:01;3.90;;;1.90;;
6878;SDS011;3478;51.462;7.338;2023-08-07T21:00:03;2.63;;;1.77;;
6878;SDS011;3478;51.462;7.338;2023-08-07T21:05:10;3.90;;;1.47;;
6878;SDS011;3478;51.462;7.338;2023-08-07T21:10:12;1.87;;;1.77;;
6878;SDS011;3478;51.462;7.338;2023-08-07T21:15:14;5.63;;;1.67;;
6878;SDS011;3478;51.462;7.338;2023-08-07T21:20:17;1.77;;;1.67;;
6878;SDS011;3478;51.462;7.338;2023-08-07T21:25:19;3.03;;;1.97;;
6878;SDS011;3478;51.462;7.338;2023-08-07T21:30:21;1.90;;;1.60;;
6878;SDS011;3478;51.462;7.338;2023-08-07T21:35:25;4.20;;;1.60;;
6878;SDS011;3478;51.462;7.338;2023-08-07T21:40:27;1.07;;;0.90;;
6878;SDS011;3478;51.462;7.338;2023-08-07T21:45:28;1.70;;;1.03;;
6878;SDS011;3478;51.462;7.338;2023-08-07T21:50:32;2.00;;;1.80;;
6878;SDS011;3478;51.462;7.338;2023-08-07T21:55:36;4.07;;;2.70;;
6878;SDS011;3478;51.462;7.338;2023-08-07T22:00:38;2.30;;;1.83;;
6878;SDS011;3478;51.462;7.338;2023-08-07T22:05:41;2.50;;;2.00;;
6878;SDS011;3478;51.462;7.338;2023-08-07T22:10:43;3.23;;;1.87;;
6878;SDS011;3478;51.462;7.338;2023-08-07T22:15:45;2.00;;;1.90;;
6878;SDS011;3478;51.462;7.338;2023-08-07T22:20:50;2.07;;;1.87;;
6878;SDS011;3478;51.462;7.338;2023-08-07T22:25:52;6.10;;;1.93;;
6878;SDS011;3478;51.462;7.338;2023-08-07T22:30:55;2.40;;;2.20;;
6878;SDS011;3478;51.462;7.338;2023-08-07T22:35:59;3.13;;;1.87;;
6878;SDS011;3478;51.462;7.338;2023-08-07T22:41:01;3.77;;;2.37;;
6878;SDS011;3478;51.462;7.338;2023-08-07T22:46:03;6.10;;;2.90;;
6878;SDS011;3478;51.462;7.338;2023-08-07T22:51:06;3.30;;;1.70;;
6878;SDS011;3478;51.462;7.338;2023-08-07T22:56:08;4.40;;;1.60;;
6878;SDS011;3478;51.462;7.338;2023-08-07T23:01:10;6.07;;;2.33;;
6878;SDS011;3478;51.462;7.338;2023-08-07T23:06:14;1.60;;;1.40;;
6878;SDS011;3478;51.462;7.338;2023-08-07T23:11:16;2.87;;;1.80;;
6878;SDS011;3478;51.462;7.338;2023-08-07T23:16:18;1.30;;;1.20;;
6878;SDS011;3478;51.462;7.338;2023-08-07T23:21:21;4.30;;;1.67;;
6878;SDS011;3478;51.462;7.338;2023-08-07T23:26:23;3.33;;;1.40;;
6878;SDS011;3478;51.462;7.338;2023-08-07T23:31:27;2.27;;;1.90;;
6878;SDS011;3478;51.462;7.338;2023-08-07T23:36:30;1.60;;;1.23;;
6878;SDS011;3478;51.462;7.338;2023-08-07T23:41:32;1.40;;;1.27;;
6878;SDS011;3478;51.462;7.338;2023-08-07T23:46:34;1.17;;;0.90;;
6878;SDS011;3478;51.462;7.338;2023-08-07T23:51:37;3.90;;;1.37;;
6878;SDS011;3478;51.462;7.338;2023-08-07T23:56:39;1.43;;;0.77;;
